Time;durP1;ratioP1;P1;durP2;ratioP2;P2;SDS_P1;SDS_P2;PMS_P1;PMS_P2;Temp;Humidity;BMP_temperature;BMP_pressure;BME280_temperature;BME280_humidity;BME280_pressure;Samples;Min_cycle;Max_cycle;Signal;HPM_P1;HPM_P2
2021/11/12 00:03:49;;;;;;;21.38;17.27;;;;;;;;;;5032942;28;20298;-82
2021/11/12 00:14:24;;;;;;;27.30;16.58;;;;;;;;;;5012247;28;20571;-81
2021/11/12 00:16:51;;;;;;;21.42;16.45;;;;;;;;;;5036485;28;20187;-81
2021/11/12 00:19:19;;;;;;;21.77;17.10;;;;;;;;;;5039542;28;20698;-83
2021/11/12 00:21:46;;;;;;;26.35;18.10;;;;;;;;;;5011556;28;20227;-81
2021/11/12 00:24:13;;;;;;;22.55;17.83;;;;;;;;;;5018799;28;20664;-81
2021/11/12 00:26:42;;;;;;;24.27;17.65;;;;;;;;;;5032404;28;20195;-81
2021/11/12 00:29:11;;;;;;;22.88;18.40;;;;;;;;;;5032388;28;20265;-84
2021/11/12 00:31:44;;;;;;;19.75;16.75;;;;;;;;;;5033177;28;20223;-81
2021/11/12 00:34:35;;;;;;;24.08;18.65;;;;;;;;;;5034001;28;20222;-83
2021/11/12 00:37:09;;;;;;;20.45;15.82;;;;;;;;;;5027890;28;20220;-80
2021/11/12 00:39:39;;;;;;;19.95;16.40;;;;;;;;;;5035043;28;20552;-82
2021/11/12 00:42:12;;;;;;;21.83;16.38;;;;;;;;;;5025867;28;20234;-79
2021/11/12 00:44:44;;;;;;;22.20;16.77;;;;;;;;;;5051154;28;20297;-79
2021/11/12 00:47:20;;;;;;;21.77;16.83;;;;;;;;;;5026028;28;20201;-79
2021/11/12 00:49:58;;;;;;;22.45;17.10;;;;;;;;;;5010783;28;20215;-80
2021/11/12 00:52:40;;;;;;;24.20;17.50;;;;;;;;;;5004477;28;20710;-79
2021/11/12 00:55:07;;;;;;;21.55;17.40;;;;;;;;;;5035852;28;20187;-80
2021/11/12 00:57:36;;;;;;;21.70;16.10;;;;;;;;;;5044639;28;20198;-81
2021/11/12 01:00:04;;;;;;;22.60;17.58;;;;;;;;;;5051228;28;20199;-80
2021/11/12 01:02:32;;;;;;;25.85;16.63;;;;;;;;;;5050995;28;20573;-80
2021/11/12 01:04:59;;;;;;;22.58;16.25;;;;;;;;;;5050540;28;20209;-81
2021/11/12 01:07:27;;;;;;;29.15;18.25;;;;;;;;;;5039558;28;20210;-80
2021/11/12 01:09:54;;;;;;;24.48;16.60;;;;;;;;;;5028066;28;20245;-79
2021/11/12 01:12:36;;;;;;;25.23;17.90;;;;;;;;;;5020002;28;20699;-79
2021/11/12 01:15:05;;;;;;;21.20;15.65;;;;;;;;;;5007726;28;20680;-79
2021/11/12 01:17:32;;;;;;;19.23;15.63;;;;;;;;;;5008395;28;20224;-80
2021/11/12 01:20:00;;;;;;;21.02;15.70;;;;;;;;;;5008939;28;20199;-78
2021/11/12 01:22:27;;;;;;;24.77;16.48;;;;;;;;;;5006394;28;20218;-79
2021/11/12 01:24:54;;;;;;;19.30;15.23;;;;;;;;;;4991513;28;20193;-79
2021/11/12 01:27:21;;;;;;;21.73;16.30;;;;;;;;;;4993347;28;20204;-79
2021/11/12 01:29:48;;;;;;;19.00;15.27;;;;;;;;;;5003300;28;20212;-80
2021/11/12 01:32:21;;;;;;;21.00;14.77;;;;;;;;;;4994316;28;20761;-78
2021/11/12 01:34:49;;;;;;;20.27;14.65;;;;;;;;;;4988655;28;20242;-78
2021/11/12 01:37:18;;;;;;;18.73;14.55;;;;;;;;;;4988242;28;20200;-79
2021/11/12 01:39:50;;;;;;;17.63;14.32;;;;;;;;;;4989223;28;20567;-80
2021/11/12 01:42:18;;;;;;;19.02;14.05;;;;;;;;;;4993490;28;20212;-79
2021/11/12 01:44:48;;;;;;;21.70;14.20;;;;;;;;;;4990239;28;20886;-80
2021/11/12 01:47:20;;;;;;;18.17;13.70;;;;;;;;;;5010974;28;20187;-81
2021/11/12 01:49:50;;;;;;;21.95;14.73;;;;;;;;;;5030561;28;20215;-81
2021/11/12 01:52:35;;;;;;;21.65;13.73;;;;;;;;;;5030264;28;20305;-81
2021/11/12 01:55:05;;;;;;;17.30;12.95;;;;;;;;;;4989241;28;20204;-80
2021/11/12 01:57:49;;;;;;;19.25;13.50;;;;;;;;;;4994941;28;20650;-80
2021/11/12 02:00:18;;;;;;;19.15;14.30;;;;;;;;;;4993056;28;20656;-81
2021/11/12 02:02:45;;;;;;;20.20;15.05;;;;;;;;;;4972517;28;20217;-79
2021/11/12 02:05:14;;;;;;;17.55;13.60;;;;;;;;;;4973343;28;20202;-81
2021/11/12 02:07:41;;;;;;;17.35;13.02;;;;;;;;;;4972990;28;20226;-80
2021/11/12 02:10:10;;;;;;;21.45;14.27;;;;;;;;;;4982849;28;20231;-80
2021/11/12 02:12:47;;;;;;;17.52;12.65;;;;;;;;;;4995094;28;20212;-82
2021/11/12 02:15:14;;;;;;;19.38;14.50;;;;;;;;;;4990840;28;20196;-81
2021/11/12 02:17:46;;;;;;;15.05;12.32;;;;;;;;;;4990407;28;20232;-81
2021/11/12 02:20:17;;;;;;;21.30;13.70;;;;;;;;;;4992228;28;20636;-81
2021/11/12 02:22:51;;;;;;;17.17;13.65;;;;;;;;;;4992327;28;20221;-81
2021/11/12 02:25:26;;;;;;;24.77;14.52;;;;;;;;;;4981287;28;20561;-80
2021/11/12 02:27:56;;;;;;;20.38;13.65;;;;;;;;;;5015322;28;20330;-80
2021/11/12 02:30:25;;;;;;;25.42;15.07;;;;;;;;;;5015835;28;20223;-80
2021/11/12 02:33:00;;;;;;;21.80;14.50;;;;;;;;;;5015366;28;20246;-79
2021/11/12 02:35:28;;;;;;;21.63;13.57;;;;;;;;;;5011997;28;20585;-80
2021/11/12 02:37:57;;;;;;;20.00;14.40;;;;;;;;;;5040092;28;20200;-79
2021/11/12 02:40:24;;;;;;;25.38;15.73;;;;;;;;;;5051526;28;20186;-81
2021/11/12 02:42:52;;;;;;;26.35;15.75;;;;;;;;;;5036071;28;20223;-79
2021/11/12 02:45:19;;;;;;;18.25;13.88;;;;;;;;;;5018043;28;20785;-80
2021/11/12 02:47:47;;;;;;;20.55;13.68;;;;;;;;;;5013760;28;20608;-83
2021/11/12 02:50:15;;;;;;;19.55;14.63;;;;;;;;;;5027139;28;20584;-80
2021/11/12 02:52:43;;;;;;;19.48;13.65;;;;;;;;;;5038801;28;20770;-80
2021/11/12 02:55:12;;;;;;;17.55;12.90;;;;;;;;;;5035705;28;20290;-78
2021/11/12 02:57:39;;;;;;;24.08;15.55;;;;;;;;;;5031790;28;20622;-79
2021/11/12 03:00:07;;;;;;;27.55;14.85;;;;;;;;;;5033320;28;20196;-79
2021/11/12 03:02:34;;;;;;;21.63;14.90;;;;;;;;;;5032345;28;20211;-78
2021/11/12 03:05:02;;;;;;;25.55;15.98;;;;;;;;;;5033253;28;20644;-80
2021/11/12 03:07:29;;;;;;;25.40;14.95;;;;;;;;;;5034713;28;20191;-78
2021/11/12 03:09:56;;;;;;;26.95;18.20;;;;;;;;;;5041844;28;20223;-82
2021/11/12 03:12:25;;;;;;;27.27;14.00;;;;;;;;;;5026825;28;20222;-80
2021/11/12 03:14:53;;;;;;;27.55;15.60;;;;;;;;;;5012760;28;20204;-79
2021/11/12 03:17:20;;;;;;;34.22;17.30;;;;;;;;;;5013129;28;20192;-79
2021/11/12 03:19:48;;;;;;;28.80;16.23;;;;;;;;;;5013051;28;20546;-80
2021/11/12 03:22:18;;;;;;;24.33;14.55;;;;;;;;;;5037201;28;20211;-80
2021/11/12 03:24:49;;;;;;;23.30;14.70;;;;;;;;;;5036698;28;20548;-80
2021/11/12 03:27:21;;;;;;;32.58;14.95;;;;;;;;;;5022171;28;20275;-81
2021/11/12 03:30:13;;;;;;;31.98;15.75;;;;;;;;;;5012914;28;20318;-81
2021/11/12 04:02:26;;;;;;;34.33;16.63;;;;;;;;;;4996477;28;20204;-79
2021/11/12 04:05:09;;;;;;;28.75;15.93;;;;;;;;;;4994693;28;20200;-81
2021/11/12 04:17:06;;;;;;;33.05;16.45;;;;;;;;;;5008848;28;20200;-80
2021/11/12 04:18:46;;;;;;;27.13;16.52;;;;;;;;;;5015386;28;20538;-80
2021/11/12 04:40:26;;;;;;;30.65;14.65;;;;;;;;;;5024405;28;20198;-80
2021/11/12 05:10:00;;;;;;;30.05;15.77;;;;;;;;;;5011985;28;20359;-80
2021/11/12 05:26:21;;;;;;;27.73;14.23;;;;;;;;;;5048250;28;20659;-80
2021/11/12 05:34:33;;;;;;;26.10;14.90;;;;;;;;;;5014928;28;20272;-81
2021/11/12 05:50:37;;;;;;;28.10;14.93;;;;;;;;;;5035751;28;20222;-81
2021/11/12 05:55:47;;;;;;;28.17;14.13;;;;;;;;;;5017629;28;20199;-82
2021/11/12 05:58:14;;;;;;;33.30;15.40;;;;;;;;;;5034206;28;20192;-81
2021/11/12 06:00:42;;;;;;;26.10;14.93;;;;;;;;;;5034392;28;20211;-80
2021/11/12 06:03:09;;;;;;;27.52;13.85;;;;;;;;;;5026493;28;20189;-80
2021/11/12 06:05:36;;;;;;;25.70;13.82;;;;;;;;;;5031466;28;20541;-79
2021/11/12 06:08:03;;;;;;;26.02;15.05;;;;;;;;;;5038558;28;20560;-79
2021/11/12 06:10:30;;;;;;;24.50;14.15;;;;;;;;;;5035423;28;20219;-80
2021/11/12 06:12:59;;;;;;;28.17;14.93;;;;;;;;;;5034205;28;20219;-81
2021/11/12 06:15:26;;;;;;;28.13;14.27;;;;;;;;;;5033300;28;20510;-81
2021/11/12 06:17:54;;;;;;;28.67;14.80;;;;;;;;;;5032976;28;20191;-81
2021/11/12 06:20:21;;;;;;;26.27;14.32;;;;;;;;;;5035887;28;20203;-81
2021/11/12 06:22:48;;;;;;;30.13;15.07;;;;;;;;;;5039914;28;20218;-83
2021/11/12 06:25:16;;;;;;;29.25;13.88;;;;;;;;;;5033410;28;20203;-83
2021/11/12 06:27:43;;;;;;;35.42;15.48;;;;;;;;;;5031277;28;20637;-81
2021/11/12 06:30:12;;;;;;;28.02;13.73;;;;;;;;;;5026767;28;20310;-80
2021/11/12 06:32:39;;;;;;;29.33;15.45;;;;;;;;;;5024700;28;20211;-82
2021/11/12 06:35:07;;;;;;;32.83;14.95;;;;;;;;;;5030986;28;20286;-80
2021/11/12 06:37:34;;;;;;;28.25;14.23;;;;;;;;;;5035939;28;20203;-81
2021/11/12 06:40:02;;;;;;;30.00;14.07;;;;;;;;;;5022625;28;20192;-80
2021/11/12 06:42:33;;;;;;;25.70;13.00;;;;;;;;;;5027731;28;20215;-80
2021/11/12 06:50:24;;;;;;;25.98;14.38;;;;;;;;;;5032104;28;20226;-80
2021/11/12 06:52:52;;;;;;;30.40;16.23;;;;;;;;;;5033436;28;20230;-80
2021/11/12 06:55:20;;;;;;;29.73;15.10;;;;;;;;;;5016684;28;20688;-79
2021/11/12 06:57:48;;;;;;;27.48;14.65;;;;;;;;;;5034744;28;20211;-80
2021/11/12 07:00:17;;;;;;;30.98;14.10;;;;;;;;;;5034545;28;20199;-80
2021/11/12 07:02:46;;;;;;;23.58;13.95;;;;;;;;;;5016817;28;20211;-81
2021/11/12 07:05:14;;;;;;;25.33;13.80;;;;;;;;;;5020693;28;20191;-80
2021/11/12 07:07:41;;;;;;;27.80;15.07;;;;;;;;;;5037592;28;20202;-81
2021/11/12 07:10:09;;;;;;;26.23;13.93;;;;;;;;;;5034755;28;20235;-81
2021/11/12 07:12:37;;;;;;;24.13;13.85;;;;;;;;;;5053202;28;20557;-80
2021/11/12 07:15:05;;;;;;;25.48;13.65;;;;;;;;;;5053069;28;20582;-82
2021/11/12 07:17:32;;;;;;;25.38;14.57;;;;;;;;;;5052611;28;20194;-79
2021/11/12 07:20:00;;;;;;;27.52;12.82;;;;;;;;;;5035638;28;20549;-79
2021/11/12 07:22:27;;;;;;;30.13;15.55;;;;;;;;;;5038212;28;20218;-81
2021/11/12 07:24:54;;;;;;;22.00;14.25;;;;;;;;;;5035659;28;20195;-78
2021/11/12 07:27:22;;;;;;;22.52;13.60;;;;;;;;;;5013723;28;20196;-80
2021/11/12 07:29:49;;;;;;;21.98;13.80;;;;;;;;;;5011904;28;20397;-79
2021/11/12 07:32:17;;;;;;;21.50;13.60;;;;;;;;;;5012678;28;20544;-83
2021/11/12 07:34:46;;;;;;;21.15;12.40;;;;;;;;;;5022929;28;20234;-84
2021/11/12 07:37:15;;;;;;;21.73;13.48;;;;;;;;;;5035996;28;20743;-80
2021/11/12 07:39:53;;;;;;;21.08;13.90;;;;;;;;;;5032872;28;20294;-85
2021/11/12 07:42:28;;;;;;;25.70;13.40;;;;;;;;;;5017360;28;20224;-78
2021/11/12 07:47:37;;;;;;;21.20;12.40;;;;;;;;;;4983057;28;20293;-85
2021/11/12 07:50:06;;;;;;;24.58;13.18;;;;;;;;;;5006783;28;20195;-83
2021/11/12 07:52:36;;;;;;;22.45;13.02;;;;;;;;;;5037464;28;20631;-81
2021/11/12 07:55:04;;;;;;;20.08;13.32;;;;;;;;;;5034568;28;20191;-80
2021/11/12 07:57:31;;;;;;;19.73;12.18;;;;;;;;;;5000190;28;20557;-81
2021/11/12 07:59:59;;;;;;;21.38;12.52;;;;;;;;;;5030128;28;20201;-82
2021/11/12 08:02:27;;;;;;;16.73;11.20;;;;;;;;;;5030925;28;20213;-80
2021/11/12 08:04:59;;;;;;;20.05;13.05;;;;;;;;;;4997710;28;20203;-81
2021/11/12 08:07:30;;;;;;;18.08;11.38;;;;;;;;;;5014542;28;20196;-81
2021/11/12 08:10:00;;;;;;;18.92;11.88;;;;;;;;;;5028079;28;20196;-81
2021/11/12 08:12:32;;;;;;;20.73;12.25;;;;;;;;;;5024773;28;20235;-79
2021/11/12 08:15:10;;;;;;;21.48;13.43;;;;;;;;;;5027395;28;20835;-80
2021/11/12 08:17:42;;;;;;;15.18;10.45;;;;;;;;;;5024158;28;20603;-79
2021/11/12 08:20:16;;;;;;;17.33;11.50;;;;;;;;;;5027329;28;20206;-79
2021/11/12 08:22:47;;;;;;;17.77;11.88;;;;;;;;;;5025431;28;20220;-79
2021/11/12 08:25:21;;;;;;;17.98;12.05;;;;;;;;;;5016477;28;20294;-81
2021/11/12 08:28:11;;;;;;;18.27;11.43;;;;;;;;;;5026850;28;20286;-78
2021/11/12 08:33:29;;;;;;;22.23;13.73;;;;;;;;;;5027492;28;20215;-80
2021/11/12 08:38:44;;;;;;;18.58;13.43;;;;;;;;;;5030494;28;20223;-78
2021/11/12 08:41:14;;;;;;;17.45;12.05;;;;;;;;;;5031747;28;20219;-79
2021/11/12 08:43:44;;;;;;;18.50;13.55;;;;;;;;;;5030977;28;20280;-81
2021/11/12 08:46:20;;;;;;;18.83;12.85;;;;;;;;;;5033100;28;20278;-78
2021/11/12 08:48:55;;;;;;;17.27;12.50;;;;;;;;;;5016006;28;20205;-80
2021/11/12 08:51:23;;;;;;;17.02;11.75;;;;;;;;;;5035743;28;20226;-80
2021/11/12 08:53:51;;;;;;;20.38;12.98;;;;;;;;;;5036435;28;20200;-80
2021/11/12 08:56:22;;;;;;;18.52;12.95;;;;;;;;;;5027147;28;20219;-81
2021/11/12 08:58:51;;;;;;;20.25;13.25;;;;;;;;;;5027442;28;20206;-82
2021/11/12 09:01:18;;;;;;;16.70;12.63;;;;;;;;;;5031129;28;20214;-81
2021/11/12 09:03:46;;;;;;;18.73;13.75;;;;;;;;;;5031345;28;20645;-77
2021/11/12 09:06:13;;;;;;;16.63;12.27;;;;;;;;;;5032135;28;20271;-79
2021/11/12 09:08:41;;;;;;;16.75;11.88;;;;;;;;;;5033149;28;20234;-79
2021/11/12 09:11:09;;;;;;;17.73;12.43;;;;;;;;;;5012129;28;20239;-80
2021/11/12 09:13:42;;;;;;;16.35;12.05;;;;;;;;;;5036855;28;20207;-81
2021/11/12 09:16:11;;;;;;;16.75;11.68;;;;;;;;;;5026541;28;20205;-79
2021/11/12 09:18:39;;;;;;;16.42;13.02;;;;;;;;;;5022637;28;20200;-80
2021/11/12 09:21:06;;;;;;;15.40;11.40;;;;;;;;;;5022806;28;20218;-79
2021/11/12 09:23:34;;;;;;;16.15;12.73;;;;;;;;;;5031043;28;20671;-78
2021/11/12 09:26:01;;;;;;;15.35;12.02;;;;;;;;;;5030585;28;20203;-79
2021/11/12 09:28:28;;;;;;;15.13;11.50;;;;;;;;;;5035338;28;20286;-80
2021/11/12 09:30:58;;;;;;;16.88;11.95;;;;;;;;;;5019014;28;20212;-79
2021/11/12 09:33:25;;;;;;;18.10;12.23;;;;;;;;;;5017632;28;20188;-78
2021/11/12 09:35:52;;;;;;;14.90;10.93;;;;;;;;;;5015139;28;20196;-81
2021/11/12 09:38:19;;;;;;;16.80;12.40;;;;;;;;;;5010714;28;20199;-79
2021/11/12 09:40:47;;;;;;;18.30;11.82;;;;;;;;;;5024888;28;20195;-80
2021/11/12 09:43:14;;;;;;;17.33;11.88;;;;;;;;;;5035751;28;20195;-79
2021/11/12 09:45:41;;;;;;;17.80;13.70;;;;;;;;;;5035169;28;20201;-77
2021/11/12 09:48:11;;;;;;;17.23;12.27;;;;;;;;;;5029987;28;20539;-77
2021/11/12 09:50:40;;;;;;;18.65;12.82;;;;;;;;;;5027006;28;20188;-77
2021/11/12 09:53:07;;;;;;;15.05;12.13;;;;;;;;;;5029194;28;20644;-77
2021/11/12 09:55:34;;;;;;;16.92;12.52;;;;;;;;;;5029612;28;20215;-80
2021/11/12 09:58:03;;;;;;;16.95;12.98;;;;;;;;;;5030938;28;20198;-79
2021/11/12 10:00:33;;;;;;;19.52;13.52;;;;;;;;;;5019071;28;20570;-78
2021/11/12 10:03:02;;;;;;;16.95;12.50;;;;;;;;;;5031456;28;20269;-76
2021/11/12 10:05:35;;;;;;;22.40;13.65;;;;;;;;;;5010604;28;20259;-82
2021/11/12 10:08:03;;;;;;;18.75;14.45;;;;;;;;;;5027962;28;20274;-82
2021/11/12 10:10:30;;;;;;;18.40;13.10;;;;;;;;;;5013169;28;20196;-78
2021/11/12 10:12:57;;;;;;;20.20;13.38;;;;;;;;;;5004841;28;20707;-79
2021/11/12 10:15:28;;;;;;;21.98;14.07;;;;;;;;;;5035330;28;20617;-79
2021/11/12 10:18:05;;;;;;;17.58;12.50;;;;;;;;;;5033717;28;20262;-80
2021/11/12 10:20:34;;;;;;;15.75;12.18;;;;;;;;;;5029911;28;20205;-80
2021/11/12 10:23:13;;;;;;;16.05;12.23;;;;;;;;;;5047526;28;20205;-79
2021/11/12 10:25:52;;;;;;;18.75;12.60;;;;;;;;;;5042716;28;20206;-77
2021/11/12 10:28:33;;;;;;;17.17;12.65;;;;;;;;;;5033534;28;20285;-78
2021/11/12 10:31:10;;;;;;;19.27;12.40;;;;;;;;;;5020055;28;20330;-78
2021/11/12 10:33:38;;;;;;;19.35;13.10;;;;;;;;;;5023848;28;20192;-77
2021/11/12 10:36:06;;;;;;;17.70;12.65;;;;;;;;;;5030774;28;20656;-77
2021/11/12 10:38:38;;;;;;;20.52;13.50;;;;;;;;;;5034735;28;20196;-80
2021/11/12 10:41:14;;;;;;;19.05;12.73;;;;;;;;;;5028597;28;20209;-81
2021/11/12 10:43:41;;;;;;;20.42;14.68;;;;;;;;;;5018336;28;20195;-77
2021/11/12 10:46:08;;;;;;;17.20;13.18;;;;;;;;;;5033340;28;20200;-78
2021/11/12 10:48:35;;;;;;;21.48;12.70;;;;;;;;;;5014924;28;20218;-78
2021/11/12 10:51:16;;;;;;;21.30;12.77;;;;;;;;;;5031835;28;20580;-79
2021/11/12 10:53:49;;;;;;;19.05;12.90;;;;;;;;;;5017212;28;20197;-80
2021/11/12 10:56:16;;;;;;;28.45;13.75;;;;;;;;;;5006645;28;20191;-79
2021/11/12 10:58:58;;;;;;;20.75;12.88;;;;;;;;;;5019286;28;20196;-78
2021/11/12 11:01:32;;;;;;;19.13;13.52;;;;;;;;;;5037153;28;20211;-76
2021/11/12 11:04:14;;;;;;;19.90;13.27;;;;;;;;;;5034742;28;20191;-77
2021/11/12 11:06:42;;;;;;;16.70;12.18;;;;;;;;;;5016966;28;20253;-76
2021/11/12 11:09:10;;;;;;;19.55;13.30;;;;;;;;;;5033046;28;20195;-77
2021/11/12 11:11:39;;;;;;;20.33;14.05;;;;;;;;;;5029522;28;20233;-78
2021/11/12 11:14:06;;;;;;;15.40;12.40;;;;;;;;;;5026461;28;20210;-78
2021/11/12 11:16:42;;;;;;;21.77;13.63;;;;;;;;;;5033321;28;20196;-77
2021/11/12 11:19:11;;;;;;;20.40;12.43;;;;;;;;;;5037298;28;20225;-79
2021/11/12 11:21:39;;;;;;;18.42;12.80;;;;;;;;;;5021342;28;20705;-78
2021/11/12 11:24:08;;;;;;;22.10;14.52;;;;;;;;;;5013083;28;20231;-78
2021/11/12 11:26:43;;;;;;;19.77;13.50;;;;;;;;;;5026958;28;20293;-79
2021/11/12 11:29:11;;;;;;;22.95;14.73;;;;;;;;;;5008270;28;20584;-78
2021/11/12 11:31:38;;;;;;;21.05;13.50;;;;;;;;;;5013544;28;20668;-79
2021/11/12 11:34:06;;;;;;;20.67;12.98;;;;;;;;;;5016033;28;20608;-77
2021/11/12 11:36:35;;;;;;;20.00;13.43;;;;;;;;;;5028086;28;20210;-78
2021/11/12 11:39:05;;;;;;;20.80;13.85;;;;;;;;;;5025661;28;20708;-80
2021/11/12 11:41:34;;;;;;;16.98;12.80;;;;;;;;;;5030135;28;20212;-79
2021/11/12 11:44:01;;;;;;;19.65;13.27;;;;;;;;;;5011830;28;20220;-78
2021/11/12 11:46:29;;;;;;;18.58;13.65;;;;;;;;;;5028173;28;20207;-79
2021/11/12 11:48:58;;;;;;;17.55;13.57;;;;;;;;;;5020271;28;20187;-81
2021/11/12 11:51:28;;;;;;;20.52;14.82;;;;;;;;;;5022794;28;20276;-80
2021/11/12 11:53:55;;;;;;;21.23;14.65;;;;;;;;;;5010425;28;20195;-79
2021/11/12 11:56:26;;;;;;;22.23;13.90;;;;;;;;;;5009057;28;20207;-79
2021/11/12 11:58:56;;;;;;;20.05;13.98;;;;;;;;;;5010895;28;20211;-79
2021/11/12 12:01:28;;;;;;;16.63;13.70;;;;;;;;;;5016557;28;20211;-76
2021/11/12 12:04:10;;;;;;;21.33;13.60;;;;;;;;;;5037010;28;20564;-77
2021/11/12 12:06:39;;;;;;;22.58;14.57;;;;;;;;;;5025152;28;20205;-79
2021/11/12 12:09:08;;;;;;;16.30;12.68;;;;;;;;;;5015445;28;20192;-78
2021/11/12 12:11:36;;;;;;;17.05;13.43;;;;;;;;;;5025368;28;20212;-78
2021/11/12 12:14:18;;;;;;;16.88;12.55;;;;;;;;;;5030750;28;20258;-79
2021/11/12 12:16:48;;;;;;;19.05;13.90;;;;;;;;;;5014115;28;20195;-79
2021/11/12 12:19:35;;;;;;;20.55;13.25;;;;;;;;;;5035161;28;20193;-79
2021/11/12 12:22:14;;;;;;;19.35;13.63;;;;;;;;;;5030824;28;20276;-79
2021/11/12 12:36:26;;;;;;;16.92;13.23;;;;;;;;;;5033721;28;20199;-79
2021/11/12 13:20:58;;;;;;;17.58;12.05;;;;;;;;;;5032755;28;20457;-80
2021/11/12 13:23:33;;;;;;;16.70;12.60;;;;;;;;;;5032286;28;20730;-78
2021/11/12 13:26:03;;;;;;;16.63;13.70;;;;;;;;;;5028215;28;20454;-78
2021/11/12 13:28:32;;;;;;;16.57;12.93;;;;;;;;;;5030021;28;20442;-82
2021/11/12 13:31:01;;;;;;;17.03;12.20;;;;;;;;;;5023953;28;20840;-79
2021/11/12 13:33:33;;;;;;;18.10;12.37;;;;;;;;;;5032475;28;20484;-79
2021/11/12 13:36:02;;;;;;;15.17;11.83;;;;;;;;;;5014456;28;20453;-80
2021/11/12 13:38:38;;;;;;;17.40;12.73;;;;;;;;;;5028015;28;20480;-78
2021/11/12 13:41:07;;;;;;;13.07;11.17;;;;;;;;;;5009717;28;20211;-78
2021/11/12 13:43:35;;;;;;;17.87;11.90;;;;;;;;;;5028351;28;20438;-79
2021/11/12 13:46:03;;;;;;;15.60;12.07;;;;;;;;;;5029783;28;20537;-78
2021/11/12 13:48:30;;;;;;;15.90;12.63;;;;;;;;;;5031419;28;20467;-82
2021/11/12 13:51:00;;;;;;;16.77;13.23;;;;;;;;;;5035621;28;20497;-81
2021/11/12 13:53:27;;;;;;;19.43;13.67;;;;;;;;;;5020884;28;20497;-80
2021/11/12 13:55:55;;;;;;;17.73;14.00;;;;;;;;;;5004382;28;20459;-76
2021/11/12 13:58:26;;;;;;;17.70;13.33;;;;;;;;;;5014492;28;20439;-80
2021/11/12 14:00:54;;;;;;;19.47;13.83;;;;;;;;;;5013540;28;20447;-78
2021/11/12 14:03:33;;;;;;;18.47;13.50;;;;;;;;;;5013302;28;20450;-78
2021/11/12 14:06:04;;;;;;;14.33;10.97;;;;;;;;;;5017777;28;20538;-80
2021/11/12 14:08:34;;;;;;;19.33;14.57;;;;;;;;;;5015784;28;21014;-80
2021/11/12 14:11:04;;;;;;;15.73;11.60;;;;;;;;;;5013501;28;20462;-80
2021/11/12 14:13:39;;;;;;;18.27;12.33;;;;;;;;;;5012340;28;20482;-78
2021/11/12 14:16:12;;;;;;;15.37;12.03;;;;;;;;;;5008110;28;20510;-79
2021/11/12 14:18:50;;;;;;;17.00;12.77;;;;;;;;;;5015593;28;20468;-80
2021/11/12 14:21:24;;;;;;;19.00;12.63;;;;;;;;;;5017705;28;20462;-77
2021/11/12 14:23:59;;;;;;;15.23;11.33;;;;;;;;;;5010549;28;20427;-79
2021/11/12 14:26:31;;;;;;;15.90;13.40;;;;;;;;;;5006869;28;20446;-78
2021/11/12 14:29:05;;;;;;;17.13;12.27;;;;;;;;;;5014236;28;20454;-78
2021/11/12 14:31:49;;;;;;;19.40;13.50;;;;;;;;;;5006790;28;20479;-78
2021/11/12 14:34:29;;;;;;;16.10;11.70;;;;;;;;;;5005939;28;20822;-80
2021/11/12 14:36:59;;;;;;;17.80;13.30;;;;;;;;;;5018825;28;20446;-76
2021/11/12 14:39:42;;;;;;;18.27;12.73;;;;;;;;;;5014313;28;20459;-80
2021/11/12 14:44:58;;;;;;;17.00;12.60;;;;;;;;;;5010820;28;20516;-76
2021/11/12 14:47:34;;;;;;;15.50;11.87;;;;;;;;;;4980305;28;20502;-79
2021/11/12 14:50:07;;;;;;;20.73;13.63;;;;;;;;;;4990836;28;20448;-78
2021/11/12 14:52:34;;;;;;;18.07;13.57;;;;;;;;;;4995523;28;20978;-77
2021/11/12 14:55:07;;;;;;;18.02;13.15;;;;;;;;;;4995581;28;20428;-79
2021/11/12 14:57:37;;;;;;;17.70;12.45;;;;;;;;;;4992762;28;20193;-84
2021/11/12 15:00:11;;;;;;;19.15;13.60;;;;;;;;;;5006362;28;20197;-79
2021/11/12 15:02:40;;;;;;;20.40;14.38;;;;;;;;;;4998762;28;20364;-79
2021/11/12 15:05:08;;;;;;;19.70;13.20;;;;;;;;;;4997213;28;20201;-80
2021/11/12 15:07:37;;;;;;;24.02;14.32;;;;;;;;;;4963684;28;20248;-80
2021/11/12 15:10:08;;;;;;;22.25;14.88;;;;;;;;;;4989274;28;20604;-77
2021/11/12 15:12:36;;;;;;;18.90;13.20;;;;;;;;;;4994559;28;20677;-77
2021/11/12 15:15:06;;;;;;;17.20;12.90;;;;;;;;;;4997500;28;20542;-77
2021/11/12 15:17:34;;;;;;;17.37;12.30;;;;;;;;;;5024953;28;20481;-78
2021/11/12 15:20:01;;;;;;;20.47;13.90;;;;;;;;;;5031177;28;20579;-78
2021/11/12 15:22:40;;;;;;;18.77;14.00;;;;;;;;;;4994746;28;21066;-78
2021/11/12 15:25:14;;;;;;;20.60;14.43;;;;;;;;;;4993862;28;20224;-77
2021/11/12 15:30:26;;;;;;;17.03;13.70;;;;;;;;;;4992039;28;20203;-77
2021/11/12 15:32:56;;;;;;;20.15;13.75;;;;;;;;;;5001662;28;20479;-78
2021/11/12 15:35:24;;;;;;;22.13;13.80;;;;;;;;;;5013194;28;20214;-79
2021/11/12 15:37:57;;;;;;;19.13;13.63;;;;;;;;;;5015044;28;20258;-77
2021/11/12 15:40:27;;;;;;;21.40;14.90;;;;;;;;;;5013725;28;20201;-79
2021/11/12 15:45:49;;;;;;;17.83;13.32;;;;;;;;;;5014433;28;20192;-78
2021/11/12 15:48:18;;;;;;;20.50;14.52;;;;;;;;;;5014223;28;20246;-78
2021/11/12 15:50:51;;;;;;;19.70;14.52;;;;;;;;;;5012946;28;20223;-77
2021/11/12 15:53:22;;;;;;;20.67;13.20;;;;;;;;;;5025221;28;20242;-79
2021/11/12 15:56:03;;;;;;;18.38;13.32;;;;;;;;;;5035529;28;20250;-80
2021/11/12 15:58:45;;;;;;;21.60;14.48;;;;;;;;;;5039971;28;20687;-77
2021/11/12 16:01:34;;;;;;;22.08;14.77;;;;;;;;;;5031152;28;20221;-78
2021/11/12 16:07:00;;;;;;;23.05;15.23;;;;;;;;;;5008720;28;20192;-79
2021/11/12 16:09:35;;;;;;;23.40;14.02;;;;;;;;;;5035037;28;20203;-78
2021/11/12 16:14:50;;;;;;;20.45;15.07;;;;;;;;;;5029602;28;20297;-77
2021/11/12 16:17:32;;;;;;;23.23;14.98;;;;;;;;;;5014924;28;20261;-78
2021/11/12 16:20:06;;;;;;;19.67;13.55;;;;;;;;;;5033934;28;20195;-78
2021/11/12 16:22:46;;;;;;;20.17;14.25;;;;;;;;;;5030496;28;20243;-78
2021/11/12 16:25:16;;;;;;;20.98;14.75;;;;;;;;;;5032707;28;20195;-79
2021/11/12 16:27:46;;;;;;;19.40;13.98;;;;;;;;;;5036801;28;20260;-77
2021/11/12 16:30:14;;;;;;;19.25;14.48;;;;;;;;;;5017344;28;20653;-80
2021/11/12 16:32:45;;;;;;;16.52;13.02;;;;;;;;;;5031338;28;20218;-79
2021/11/12 16:35:14;;;;;;;23.35;14.52;;;;;;;;;;5005403;28;20195;-79
2021/11/12 16:37:43;;;;;;;19.40;13.93;;;;;;;;;;5006888;28;20192;-78
2021/11/12 16:40:15;;;;;;;22.20;15.85;;;;;;;;;;5022199;28;20666;-77
2021/11/12 16:42:58;;;;;;;21.88;14.70;;;;;;;;;;5034813;28;20218;-78
2021/11/12 16:45:35;;;;;;;18.92;14.30;;;;;;;;;;5048165;28;20190;-79
2021/11/12 16:48:16;;;;;;;21.90;14.02;;;;;;;;;;5030686;28;20195;-76
2021/11/12 16:50:53;;;;;;;22.48;15.45;;;;;;;;;;5008655;28;20276;-77
2021/11/12 16:53:28;;;;;;;21.40;14.52;;;;;;;;;;5029749;28;20226;-80
2021/11/12 16:58:47;;;;;;;20.63;14.45;;;;;;;;;;5015596;28;20214;-78
2021/11/12 17:04:05;;;;;;;24.27;15.48;;;;;;;;;;5032593;28;20192;-80
2021/11/12 17:06:35;;;;;;;22.75;15.00;;;;;;;;;;5030073;28;20195;-79
2021/11/12 17:09:19;;;;;;;22.50;15.23;;;;;;;;;;5030705;28;20198;-80
2021/11/12 17:11:51;;;;;;;25.70;15.60;;;;;;;;;;5047528;28;20218;-80
2021/11/12 17:14:27;;;;;;;20.92;14.75;;;;;;;;;;5017523;28;20214;-80
2021/11/12 17:17:09;;;;;;;21.42;14.98;;;;;;;;;;5034383;28;20191;-79
2021/11/12 17:19:52;;;;;;;23.20;14.23;;;;;;;;;;5030979;28;20214;-79
2021/11/12 17:46:35;;;;;;;24.38;14.52;;;;;;;;;;5018160;28;20203;-78
2021/11/12 17:49:11;;;;;;;22.77;16.63;;;;;;;;;;5019180;28;20195;-77
2021/11/12 17:51:58;;;;;;;24.70;14.60;;;;;;;;;;5029366;28;20228;-79
2021/11/12 18:02:28;;;;;;;18.33;13.40;;;;;;;;;;5043997;28;20283;-79
2021/11/12 18:05:09;;;;;;;20.73;14.98;;;;;;;;;;5022118;28;20200;-79
2021/11/12 18:10:40;;;;;;;17.67;12.38;;;;;;;;;;4999529;28;20192;-78
2021/11/12 18:13:31;;;;;;;19.27;13.32;;;;;;;;;;5032372;28;20669;-80
2021/11/12 21:44:23;;;;;;;20.15;12.02;;;;;;;;;;5030024;28;20679;-79
2021/11/12 21:46:51;;;;;;;18.75;12.95;;;;;;;;;;5029818;28;20203;-78
2021/11/12 21:49:18;;;;;;;18.35;12.30;;;;;;;;;;5032197;28;20284;-80
2021/11/12 21:51:47;;;;;;;19.30;11.45;;;;;;;;;;5036424;28;20318;-79
2021/11/12 21:54:15;;;;;;;18.85;13.20;;;;;;;;;;5028409;28;20227;-80
2021/11/12 21:56:42;;;;;;;17.10;10.65;;;;;;;;;;5030459;28;20645;-78
2021/11/12 21:59:09;;;;;;;16.00;11.73;;;;;;;;;;5030880;28;20768;-79
2021/11/12 22:01:37;;;;;;;17.30;11.68;;;;;;;;;;5030817;28;20226;-80
2021/11/12 22:04:05;;;;;;;20.75;12.45;;;;;;;;;;5012216;28;20202;-80
2021/11/12 22:06:32;;;;;;;18.67;12.13;;;;;;;;;;5016808;28;20196;-80
2021/11/12 22:09:00;;;;;;;19.38;12.77;;;;;;;;;;5036263;28;20194;-77
2021/11/12 22:11:28;;;;;;;17.83;12.35;;;;;;;;;;5029767;28;20688;-79
2021/11/12 22:13:55;;;;;;;17.65;12.13;;;;;;;;;;5030405;28;20584;-77
2021/11/12 22:16:22;;;;;;;21.20;14.40;;;;;;;;;;5029509;28;20195;-78
2021/11/12 22:18:50;;;;;;;15.35;11.63;;;;;;;;;;5031891;28;20206;-78